Terminal Aerodrome Forecast
Issued by NWS

Home | Current Version | Previous Version | Graphics & Text | Print | Product List | Glossary On
Versions: 1 2 3 4 5 6 7 8 9 10 11 12 13 14 15 16 17 18 19 20
000
FTUS43 KMPX 241100
TAFRWF
TAF
KRWF 241124Z 2412/2512 32012G18KT P6SM OVC006
     FM241700 31007KT P6SM OVC015
     FM250400 22007KT P6SM SCT020 OVC070
     FM250900 18006KT P6SM SCT007 OVC015=

USA.gov is the U.S. government's official web portal to all federal, state and local government web resources and services.